Time;durP1;ratioP1;P1;durP2;ratioP2;P2;SDS_P1;SDS_P2;PMS_P1;PMS_P2;Temp;Humidity;BMP_temperature;BMP_pressure;BME280_temperature;BME280_humidity;BME280_pressure;Samples;Min_cycle;Max_cycle;Signal;HPM_P1;HPM_P2
2022/03/09 00:01:56;;;;;;;11.60;8.25;;;;;;;2.24;44.81;99876.25;5028224;28;20088;-68
2022/03/09 00:04:29;;;;;;;11.52;8.45;;;;;;;2.13;45.30;99889.47;5028374;28;20088;-68
2022/03/09 00:07:01;;;;;;;12.45;7.88;;;;;;;1.90;44.84;99847.94;5028217;28;20046;-68
2022/03/09 00:09:34;;;;;;;9.80;8.30;;;;;;;2.11;45.29;99885.16;5028386;28;20100;-68
2022/03/09 00:12:09;;;;;;;11.85;8.48;;;;;;;2.12;45.32;99887.75;5028073;28;20198;-68
2022/03/09 00:14:41;;;;;;;9.63;8.00;;;;;;;2.13;45.38;99892.09;5027610;28;20061;-68
2022/03/09 00:17:13;;;;;;;10.77;7.70;;;;;;;2.09;45.46;99897.38;5028306;28;20046;-68
2022/03/09 00:19:46;;;;;;;9.85;7.90;;;;;;;2.11;45.27;99893.88;5028032;28;20103;-68
2022/03/09 00:22:18;;;;;;;11.68;8.13;;;;;;;1.89;45.71;99895.00;5027954;28;20045;-68
2022/03/09 00:24:50;;;;;;;12.65;7.43;;;;;;;2.07;44.98;99896.53;5027868;28;20049;-68
2022/03/09 00:27:24;;;;;;;9.30;6.88;;;;;;;2.04;46.01;99902.66;5027835;28;20249;-68
2022/03/09 00:29:56;;;;;;;12.30;7.55;;;;;;;2.03;45.11;99898.31;5028001;28;20069;-68
2022/03/09 00:32:28;;;;;;;11.45;7.63;;;;;;;1.99;45.43;99898.38;5027976;28;20042;-68
2022/03/09 00:35:00;;;;;;;11.60;8.48;;;;;;;2.00;45.23;99889.66;5027663;28;20298;-68
2022/03/09 00:37:32;;;;;;;10.30;8.40;;;;;;;1.95;45.34;99891.44;5027927;28;20282;-68
2022/03/09 00:40:06;;;;;;;10.80;8.40;;;;;;;1.95;45.84;99894.94;5027949;28;20228;-68
2022/03/09 00:42:40;;;;;;;9.02;6.78;;;;;;;1.92;46.17;99892.34;5042809;28;20285;-68
2022/03/09 00:45:13;;;;;;;12.05;7.78;;;;;;;1.89;46.15;99895.00;5027565;28;20205;-68
2022/03/09 00:47:45;;;;;;;10.65;7.10;;;;;;;1.89;45.60;99895.00;5027511;28;20045;-68
2022/03/09 00:50:17;;;;;;;9.60;6.90;;;;;;;1.90;45.42;99901.97;5026005;28;20057;-68
2022/03/09 00:52:49;;;;;;;12.45;8.13;;;;;;;1.87;45.49;99895.03;5027564;28;20049;-68
2022/03/09 00:55:21;;;;;;;10.98;7.35;;;;;;;1.92;45.52;99896.72;5027123;28;20245;-67
2022/03/09 00:57:55;;;;;;;10.85;7.45;;;;;;;1.93;46.30;99894.09;5027559;28;20282;-68
2022/03/09 01:00:27;;;;;;;9.07;7.43;;;;;;;1.95;46.12;99896.69;5027190;28;20049;-68
2022/03/09 01:02:57;;;;;;;13.60;8.77;;;;;;;1.97;46.23;99897.53;5027448;28;20042;-68
2022/03/09 01:05:28;;;;;;;11.65;8.68;;;;;;;1.99;46.01;99907.09;5027391;28;20248;-68
2022/03/09 01:07:58;;;;;;;12.18;8.07;;;;;;;1.94;46.04;99913.25;5027089;28;20046;-68
2022/03/09 01:10:28;;;;;;;11.25;7.85;;;;;;;1.92;45.75;99917.63;5027196;28;20104;-68
2022/03/09 01:13:00;;;;;;;10.70;8.45;;;;;;;1.93;45.85;99914.13;5026987;28;20053;-68
2022/03/09 01:15:29;;;;;;;10.02;7.85;;;;;;;1.90;45.75;99913.28;5026928;28;20250;-67
2022/03/09 01:17:59;;;;;;;9.23;7.72;;;;;;;1.91;46.02;99916.75;5026339;28;20042;-68
2022/03/09 01:20:29;;;;;;;9.90;7.65;;;;;;;1.90;46.04;99915.03;5027117;28;20076;-68
2022/03/09 01:23:00;;;;;;;10.85;7.78;;;;;;;1.92;45.94;99909.78;5027094;28;20088;-68
2022/03/09 01:25:29;;;;;;;12.40;8.25;;;;;;;1.92;45.81;99915.00;5027007;28;20313;-68
2022/03/09 01:28:01;;;;;;;12.18;9.13;;;;;;;1.90;45.84;99910.66;5026971;28;20045;-66
2022/03/09 01:30:30;;;;;;;8.77;7.75;;;;;;;1.89;45.78;99897.63;5026579;28;20042;-65
2022/03/09 01:33:00;;;;;;;12.18;8.80;;;;;;;1.83;46.10;99898.56;5026882;28;20042;-66
2022/03/09 01:35:31;;;;;;;11.80;8.20;;;;;;;1.81;46.32;99900.31;5026573;28;20076;-66
2022/03/09 01:38:01;;;;;;;11.40;8.27;;;;;;;1.80;46.09;99903.81;5026520;28;20229;-66
2022/03/09 01:40:31;;;;;;;11.10;9.00;;;;;;;1.42;46.08;99836.25;5026726;28;20050;-66
2022/03/09 01:43:03;;;;;;;9.45;7.32;;;;;;;1.86;46.34;99903.75;5026697;28;20092;-67
2022/03/09 01:45:32;;;;;;;12.88;8.68;;;;;;;1.87;46.07;99899.38;5026351;28;20045;-66
2022/03/09 01:48:02;;;;;;;10.13;7.25;;;;;;;1.78;46.55;99895.13;5026624;28;20281;-67
2022/03/09 01:50:32;;;;;;;10.52;8.43;;;;;;;1.77;46.42;99889.91;5026210;28;20045;-67
2022/03/09 01:53:02;;;;;;;15.32;8.93;;;;;;;1.74;47.03;99876.88;5026100;28;20042;-68
2022/03/09 01:55:32;;;;;;;9.25;7.13;;;;;;;1.59;47.75;99870.03;5026510;28;20108;-67
2022/03/09 01:58:04;;;;;;;9.82;7.18;;;;;;;1.66;46.84;99869.13;5026183;28;20294;-67
2022/03/09 02:00:33;;;;;;;19.63;8.38;;;;;;;1.68;46.92;99866.50;5026405;28;20096;-67
2022/03/09 02:03:04;;;;;;;10.60;8.00;;;;;;;1.03;46.34;99746.16;5025854;28;20088;-67
2022/03/09 02:05:34;;;;;;;11.43;8.27;;;;;;;1.01;46.38;99745.31;5026059;28;20041;-66
2022/03/09 02:10:54;;;;;;;13.13;8.20;;;;;;;1.73;47.03;99862.94;5026208;28;20068;-67
2022/03/09 02:13:27;;;;;;;11.23;8.05;;;;;;;1.67;47.32;99862.16;5025893;28;20045;-67
2022/03/09 02:16:00;;;;;;;10.80;7.88;;;;;;;1.69;47.28;99863.88;5025914;28;20088;-67
2022/03/09 02:18:32;;;;;;;12.48;8.43;;;;;;;1.74;46.46;99864.69;5025874;28;20046;-67
2022/03/09 02:21:04;;;;;;;11.95;8.95;;;;;;;1.79;46.34;99862.00;5026053;28;20046;-67
2022/03/09 02:23:37;;;;;;;11.35;8.65;;;;;;;1.84;46.58;99855.84;5026090;28;20058;-67
2022/03/09 02:26:10;;;;;;;10.90;8.00;;;;;;;1.85;46.42;99857.59;5026058;28;20042;-68
2022/03/09 02:28:47;;;;;;;12.40;8.57;;;;;;;1.49;47.18;99800.50;5026015;28;20093;-67
2022/03/09 02:31:19;;;;;;;11.77;8.18;;;;;;;1.84;46.83;99862.81;5025912;28;20050;-67
2022/03/09 02:33:51;;;;;;;11.05;7.82;;;;;;;1.84;47.08;99857.59;5025729;28;20042;-67
2022/03/09 02:36:23;;;;;;;20.30;9.50;;;;;;;1.76;46.66;99851.59;5025672;28;20100;-67
2022/03/09 02:38:58;;;;;;;9.70;8.57;;;;;;;1.76;46.80;99848.97;5025663;28;20088;-67
2022/03/09 02:41:33;;;;;;;16.30;8.32;;;;;;;1.66;47.12;99839.53;5025654;28;20092;-66
2022/03/09 02:44:06;;;;;;;9.52;7.97;;;;;;;1.57;47.52;99854.38;5025885;28;20100;-66
2022/03/09 02:46:38;;;;;;;11.98;9.38;;;;;;;1.50;47.14;99846.63;5025568;28;20286;-66
2022/03/09 02:49:10;;;;;;;11.15;9.85;;;;;;;1.46;47.81;99851.03;5024710;28;20045;-66
2022/03/09 02:51:42;;;;;;;12.98;9.63;;;;;;;1.41;47.46;99855.44;5025846;28;20041;-67
2022/03/09 02:54:16;;;;;;;9.80;8.57;;;;;;;1.40;48.19;99848.47;5025270;28;20234;-67
2022/03/09 02:56:48;;;;;;;10.60;7.28;;;;;;;1.41;47.53;99858.03;5025753;28;20054;-67
2022/03/09 02:59:20;;;;;;;12.25;8.45;;;;;;;1.44;47.53;99859.75;5025460;28;20050;-67
2022/03/09 03:01:53;;;;;;;10.43;9.23;;;;;;;1.43;47.89;99850.19;5025431;28;20352;-66
2022/03/09 03:04:25;;;;;;;11.50;9.63;;;;;;;1.51;47.07;99848.34;5025419;28;20045;-67
2022/03/09 03:06:57;;;;;;;11.25;8.65;;;;;;;1.48;47.77;99856.22;5024624;28;20045;-67
2022/03/09 03:09:31;;;;;;;11.10;8.50;;;;;;;1.42;48.00;99849.31;5025286;28;20084;-67
2022/03/09 03:12:04;;;;;;;11.65;7.95;;;;;;;1.46;47.09;99855.38;5025314;28;20084;-67
2022/03/09 03:14:36;;;;;;;13.18;9.30;;;;;;;1.46;47.36;99863.22;5027433;28;20092;-67
2022/03/09 03:17:08;;;;;;;11.30;8.60;;;;;;;1.39;47.36;99858.94;5029189;28;20099;-67
2022/03/09 03:19:40;;;;;;;12.15;8.70;;;;;;;1.41;47.51;99870.22;5029097;28;20042;-67
2022/03/09 03:22:12;;;;;;;11.20;8.82;;;;;;;1.38;47.70;99859.81;5028296;28;20042;-66
2022/03/09 03:24:46;;;;;;;12.73;8.77;;;;;;;1.37;48.28;99860.69;5029267;28;20057;-67
2022/03/09 03:27:18;;;;;;;11.10;8.90;;;;;;;1.38;47.88;99859.81;5029215;28;20041;-67
2022/03/09 03:29:50;;;;;;;10.32;8.63;;;;;;;1.33;48.05;99854.63;5028880;28;20088;-67
2022/03/09 03:32:23;;;;;;;10.10;8.73;;;;;;;1.33;48.19;99851.16;5029116;28;20041;-66
2022/03/09 03:34:55;;;;;;;15.25;9.23;;;;;;;1.31;47.76;99847.69;5028842;28;20085;-67
2022/03/09 03:37:27;;;;;;;9.95;8.60;;;;;;;1.34;48.13;99852.88;5029040;28;20096;-67
2022/03/09 03:40:01;;;;;;;11.13;8.25;;;;;;;1.31;47.92;99852.94;5028983;28;20053;-67
2022/03/09 03:42:33;;;;;;;12.32;8.45;;;;;;;0.38;47.65;99692.88;5028639;28;20286;-66
2022/03/09 03:45:06;;;;;;;12.35;8.80;;;;;;;1.32;47.71;99849.44;5028902;28;20084;-66
2022/03/09 03:47:38;;;;;;;10.27;8.02;;;;;;;1.28;48.43;99864.25;5028867;28;20088;-66
2022/03/09 03:50:10;;;;;;;10.57;7.90;;;;;;;1.28;48.11;99863.41;5028730;28;20098;-67
2022/03/09 03:52:42;;;;;;;10.05;7.88;;;;;;;1.25;48.00;99853.84;5028701;28;20050;-67
2022/03/09 03:55:17;;;;;;;9.88;8.00;;;;;;;1.22;48.50;99859.09;5028733;28;20104;-67
2022/03/09 03:57:49;;;;;;;12.18;9.10;;;;;;;1.04;48.31;99833.16;5028439;28;20046;-67
2022/03/09 04:00:23;;;;;;;10.45;8.73;;;;;;;1.22;48.79;99864.31;5028613;28;20107;-66
2022/03/09 04:02:55;;;;;;;11.95;9.02;;;;;;;1.19;48.93;99867.81;5028340;28;20095;-67
2022/03/09 04:05:27;;;;;;;14.60;9.57;;;;;;;0.90;48.70;99822.84;5028239;28;20104;-66
2022/03/09 04:07:59;;;;;;;15.60;9.90;;;;;;;1.20;48.16;99855.63;5028448;28;20046;-67
2022/03/09 04:10:33;;;;;;;9.23;7.88;;;;;;;1.19;48.96;99861.75;5028088;28;20092;-67
2022/03/09 04:13:05;;;;;;;9.30;7.95;;;;;;;0.01;48.01;99678.41;5028432;28;20088;-67
2022/03/09 04:15:37;;;;;;;13.05;8.90;;;;;;;1.20;48.29;99858.25;5028349;28;20042;-67
2022/03/09 04:18:09;;;;;;;9.57;7.45;;;;;;;1.19;48.20;99859.13;5027994;28;20294;-68
2022/03/09 04:20:40;;;;;;;13.32;7.63;;;;;;;1.19;48.17;99864.34;5027991;28;20080;-67
2022/03/09 04:23:10;;;;;;;9.75;7.82;;;;;;;1.21;48.00;99866.06;5028233;28;20038;-67
2022/03/09 04:25:41;;;;;;;11.50;7.72;;;;;;;0.99;48.48;99833.19;5027761;28;20041;-67
2022/03/09 04:28:10;;;;;;;11.70;8.68;;;;;;;1.17;48.94;99873.94;5028067;28;20297;-67
2022/03/09 04:30:41;;;;;;;21.88;9.32;;;;;;;1.12;48.96;99868.75;5027983;28;20225;-67
2022/03/09 04:33:11;;;;;;;11.30;8.60;;;;;;;1.12;48.81;99870.50;5027996;28;20060;-67
2022/03/09 04:35:41;;;;;;;12.05;8.23;;;;;;;1.12;48.54;99871.38;5027653;28;20089;-67
2022/03/09 04:38:11;;;;;;;15.63;8.48;;;;;;;1.10;48.72;99869.66;5027159;28;20045;-67
2022/03/09 04:40:43;;;;;;;15.15;9.65;;;;;;;1.07;48.94;99870.53;5027430;28;20213;-67
2022/03/09 04:43:12;;;;;;;12.48;8.00;;;;;;;1.04;49.53;99865.34;5027477;28;20042;-67
2022/03/09 04:45:42;;;;;;;14.38;9.05;;;;;;;1.13;48.54;99872.22;5027509;28;20042;-67
2022/03/09 04:48:13;;;;;;;14.45;9.80;;;;;;;1.14;48.45;99867.00;5027574;28;20104;-67
2022/03/09 04:50:43;;;;;;;11.75;9.57;;;;;;;1.12;48.96;99868.75;5027266;28;20046;-68
2022/03/09 04:53:13;;;;;;;14.43;9.88;;;;;;;1.06;49.07;99862.72;5026535;28;20041;-68
2022/03/09 04:55:45;;;;;;;12.85;8.27;;;;;;;1.05;49.57;99871.44;5027272;28;20293;-67
2022/03/09 04:58:13;;;;;;;12.80;8.80;;;;;;;0.83;48.57;99829.84;5027210;28;20061;-67
2022/03/09 05:00:44;;;;;;;12.80;9.80;;;;;;;1.04;49.32;99869.72;5027225;28;20352;-67
2022/03/09 05:03:14;;;;;;;11.90;9.60;;;;;;;1.08;49.41;99869.66;5027195;28;20293;-67
2022/03/09 05:05:44;;;;;;;12.65;8.68;;;;;;;1.09;48.52;99873.16;5027103;28;20042;-67
2022/03/09 05:08:14;;;;;;;9.95;7.70;;;;;;;1.09;49.10;99870.53;5027085;28;20049;-67
2022/03/09 05:10:46;;;;;;;11.02;9.23;;;;;;;1.06;49.35;99873.16;5026334;28;20069;-67
2022/03/09 05:13:15;;;;;;;12.95;9.35;;;;;;;1.04;48.93;99873.19;5026879;28;20038;-67
2022/03/09 05:15:45;;;;;;;11.43;9.63;;;;;;;1.04;49.03;99872.31;5027161;28;20038;-67
2022/03/09 05:18:16;;;;;;;14.27;10.07;;;;;;;0.73;48.74;99853.44;5027159;28;20104;-67
2022/03/09 05:20:47;;;;;;;12.18;9.13;;;;;;;1.10;48.50;99880.09;5027070;28;20282;-67
2022/03/09 05:23:16;;;;;;;13.35;9.35;;;;;;;1.09;48.98;99888.81;5027089;28;20061;-67
2022/03/09 05:25:47;;;;;;;14.30;11.02;;;;;;;1.08;48.97;99889.69;5026342;28;20181;-67
2022/03/09 05:28:16;;;;;;;10.27;8.48;;;;;;;0.38;48.79;99775.44;5026556;28;20065;-68
2022/03/09 05:30:47;;;;;;;11.25;8.48;;;;;;;1.15;48.54;99894.84;5026916;28;20050;-68
2022/03/09 05:33:17;;;;;;;12.48;9.35;;;;;;;0.48;49.10;99783.19;5026602;28;20293;-69
2022/03/09 05:35:47;;;;;;;30.80;21.38;;;;;;;1.19;50.12;99896.53;5026584;28;20101;-68
2022/03/09 05:38:17;;;;;;;23.45;14.82;;;;;;;1.32;49.67;99894.69;5025958;28;20049;-68
2022/03/09 05:40:49;;;;;;;26.00;15.95;;;;;;;1.40;49.72;99899.84;5026714;28;20365;-68
2022/03/09 05:43:18;;;;;;;16.77;11.45;;;;;;;1.41;48.91;99905.06;5026401;28;20042;-68
2022/03/09 05:45:48;;;;;;;15.85;10.55;;;;;;;1.43;48.72;99912.88;5025282;28;20042;-68
2022/03/09 05:48:18;;;;;;;15.43;11.48;;;;;;;1.43;49.09;99913.75;5026319;28;20052;-67
2022/03/09 05:50:49;;;;;;;16.98;12.23;;;;;;;1.40;49.34;99911.16;5026011;28;20238;-68
2022/03/09 05:53:19;;;;;;;15.52;10.60;;;;;;;1.43;48.53;99911.13;5026165;28;20100;-67
2022/03/09 05:55:51;;;;;;;15.32;10.23;;;;;;;1.46;48.81;99911.09;5025404;28;20041;-67
2022/03/09 05:58:19;;;;;;;13.02;10.13;;;;;;;1.51;48.28;99918.91;5026075;28;20344;-67
2022/03/09 06:00:50;;;;;;;15.52;10.88;;;;;;;1.54;48.41;99921.47;5026338;28;20104;-67
2022/03/09 06:03:20;;;;;;;13.57;9.38;;;;;;;1.56;48.31;99915.34;5025452;28;20034;-67
2022/03/09 06:05:50;;;;;;;16.23;11.23;;;;;;;1.60;48.20;99929.28;5025848;28;20042;-67
2022/03/09 06:08:20;;;;;;;13.23;10.60;;;;;;;1.65;48.44;99931.84;5026262;28;20313;-67
2022/03/09 06:10:53;;;;;;;13.50;9.70;;;;;;;1.74;48.46;99921.31;5026217;28;20049;-67
2022/03/09 06:13:21;;;;;;;13.60;9.55;;;;;;;1.80;48.01;99922.09;5025202;28;20049;-67
2022/03/09 06:15:51;;;;;;;16.30;10.25;;;;;;;1.88;48.08;99920.28;5026131;28;20049;-67
2022/03/09 06:18:22;;;;;;;11.88;10.27;;;;;;;2.01;47.84;99926.22;5025886;28;20042;-67
2022/03/09 06:20:52;;;;;;;10.60;9.50;;;;;;;2.11;48.44;99929.59;5025774;28;20042;-67
2022/03/09 06:23:22;;;;;;;12.57;9.60;;;;;;;2.22;47.72;99928.59;5025790;28;20081;-67
2022/03/09 06:25:54;;;;;;;14.48;10.52;;;;;;;2.35;47.34;99939.78;5025749;28;20072;-67
2022/03/09 06:28:23;;;;;;;12.77;10.07;;;;;;;1.95;46.89;99874.00;5025904;28;20340;-67
2022/03/09 06:30:53;;;;;;;13.38;9.05;;;;;;;2.60;46.82;99945.53;5025897;28;20297;-67
2022/03/09 06:33:23;;;;;;;12.02;9.32;;;;;;;2.73;46.53;99941.88;5025576;28;20041;-68
2022/03/09 06:35:53;;;;;;;12.55;9.60;;;;;;;2.90;46.56;99943.38;5025556;28;20109;-68
2022/03/09 06:38:23;;;;;;;12.10;10.68;;;;;;;3.01;46.28;99938.84;5025526;28;20052;-68
2022/03/09 06:40:55;;;;;;;11.85;9.05;;;;;;;3.04;45.98;99937.03;5025838;28;20285;-68
2022/03/09 06:43:24;;;;;;;18.20;9.88;;;;;;;2.73;45.81;99865.97;5025864;28;20046;-68
2022/03/09 06:45:54;;;;;;;10.60;8.38;;;;;;;3.12;45.67;99937.78;5025506;28;20084;-69
2022/03/09 06:48:24;;;;;;;13.23;7.95;;;;;;;3.18;45.68;99936.84;5025514;28;20045;-67
2022/03/09 06:50:55;;;;;;;11.73;7.82;;;;;;;3.16;45.41;99938.59;5029569;28;20316;-68
2022/03/09 06:53:25;;;;;;;11.00;7.82;;;;;;;3.47;44.98;99946.84;5029399;28;20049;-68
2022/03/09 06:55:57;;;;;;;13.50;7.90;;;;;;;3.67;44.77;99955.22;5029508;28;20042;-68
2022/03/09 06:58:26;;;;;;;11.48;8.07;;;;;;;3.82;44.45;99951.44;5029730;28;20045;-68
2022/03/09 07:00:57;;;;;;;13.25;8.18;;;;;;;4.04;44.27;99957.16;5029308;28;20312;-68
2022/03/09 07:03:27;;;;;;;11.23;9.00;;;;;;;4.28;43.65;99955.84;5029656;28;20065;-69
2022/03/09 07:05:56;;;;;;;11.82;8.60;;;;;;;4.54;43.49;99957.94;5029575;28;20045;-68
2022/03/09 07:08:27;;;;;;;11.52;8.88;;;;;;;4.72;43.27;99963.66;5029181;28;20042;-68
2022/03/09 07:10:58;;;;;;;14.75;9.68;;;;;;;4.96;43.09;99951.78;5029248;28;20294;-68
2022/03/09 07:13:27;;;;;;;11.93;9.55;;;;;;;4.95;42.77;99901.91;5029406;28;20056;-68
2022/03/09 07:15:57;;;;;;;13.63;8.80;;;;;;;5.48;42.31;99944.41;5029145;28;20042;-69
2022/03/09 07:18:27;;;;;;;11.57;8.63;;;;;;;5.76;41.80;99945.44;5029298;28;20041;-68
2022/03/09 07:20:58;;;;;;;12.50;8.35;;;;;;;6.00;41.38;99950.03;5029114;28;20348;-68
2022/03/09 07:23:30;;;;;;;11.55;8.00;;;;;;;5.29;40.86;99817.84;5028935;28;20046;-68
2022/03/09 07:26:02;;;;;;;15.30;9.23;;;;;;;6.17;40.90;99960.09;5029176;28;20104;-69
2022/03/09 07:28:30;;;;;;;9.93;7.40;;;;;;;6.19;40.64;99963.56;5029141;28;20045;-68
2022/03/09 07:31:01;;;;;;;10.60;7.82;;;;;;;6.24;40.80;99964.28;5029139;28;20243;-67
2022/03/09 07:33:31;;;;;;;14.35;9.07;;;;;;;6.27;40.96;99961.56;5028585;28;20048;-68
2022/03/09 07:36:01;;;;;;;11.18;8.10;;;;;;;6.27;41.02;99963.34;5028995;28;20052;-67
2022/03/09 07:38:32;;;;;;;12.48;8.73;;;;;;;6.22;41.13;99965.22;5028722;28;20038;-68
2022/03/09 07:41:03;;;;;;;13.57;9.85;;;;;;;6.15;41.01;99967.19;5028693;28;20187;-67
2022/03/09 07:43:32;;;;;;;12.98;9.10;;;;;;;6.15;41.36;99967.19;5028911;28;20052;-68
2022/03/09 07:46:03;;;;;;;13.13;8.65;;;;;;;6.10;41.41;99977.81;5028834;28;20042;-68
2022/03/09 07:48:32;;;;;;;15.20;9.40;;;;;;;6.05;41.41;99974.47;5028388;28;20042;-68
2022/03/09 07:51:03;;;;;;;15.65;10.23;;;;;;;6.05;41.22;99965.69;5028421;28;20058;-68
2022/03/09 07:53:33;;;;;;;14.30;10.40;;;;;;;6.05;41.56;99973.59;5028291;28;20061;-67
2022/03/09 07:56:05;;;;;;;11.63;8.15;;;;;;;6.07;41.25;99966.53;5028447;28;20042;-67
2022/03/09 07:58:34;;;;;;;13.43;8.93;;;;;;;6.08;41.49;99963.84;5028524;28;20057;-67
2022/03/09 08:01:04;;;;;;;14.85;9.60;;;;;;;6.07;41.51;99963.88;5027801;28;20286;-67
2022/03/09 08:03:34;;;;;;;11.85;8.93;;;;;;;5.32;41.45;99844.03;5028192;28;20100;-68
2022/03/09 08:06:04;;;;;;;15.40;9.52;;;;;;;5.98;41.35;99967.63;5028121;28;20038;-68
2022/03/09 08:08:35;;;;;;;13.02;9.95;;;;;;;3.92;41.56;99617.34;5028422;28;20038;-68
2022/03/09 08:11:06;;;;;;;11.70;8.98;;;;;;;6.00;41.45;99971.09;5027743;28;20041;-68
2022/03/09 08:13:35;;;;;;;14.27;10.00;;;;;;;5.96;41.52;99974.69;5027989;28;20190;-68
2022/03/09 08:16:06;;;;;;;12.73;8.35;;;;;;;5.91;41.17;99970.47;5027452;28;20088;-68
2022/03/09 08:18:35;;;;;;;15.95;9.18;;;;;;;5.87;41.88;99974.94;5027886;28;20041;-68
2022/03/09 08:21:06;;;;;;;10.10;7.68;;;;;;;5.89;41.54;99970.50;5027745;28;20183;-68
2022/03/09 08:23:36;;;;;;;11.02;7.95;;;;;;;5.91;41.73;99971.34;5027927;28;20041;-68
2022/03/09 08:26:08;;;;;;;11.77;7.82;;;;;;;5.93;41.42;99972.16;5026750;28;20038;-68
2022/03/09 08:28:36;;;;;;;12.07;8.50;;;;;;;5.96;41.62;99972.06;5027996;28;20066;-68
2022/03/09 08:31:06;;;;;;;11.80;8.02;;;;;;;6.05;41.37;99979.72;5027918;28;20194;-68
2022/03/09 08:33:37;;;;;;;13.18;8.65;;;;;;;6.03;41.41;99984.16;5027481;28;20045;-68
2022/03/09 08:36:07;;;;;;;15.18;9.00;;;;;;;6.05;41.44;99976.22;5027894;28;20046;-68
2022/03/09 08:38:38;;;;;;;11.18;7.47;;;;;;;6.12;41.19;99976.91;5027872;28;20041;-68
2022/03/09 08:41:09;;;;;;;10.90;7.90;;;;;;;6.23;41.11;99972.22;5027544;28;20236;-67
2022/03/09 08:43:38;;;;;;;12.98;9.88;;;;;;;6.30;41.14;99968.50;5028008;28;20046;-68
2022/03/09 08:46:08;;;;;;;11.02;7.63;;;;;;;6.21;40.93;99939.81;5027769;28;20080;-68
2022/03/09 08:48:39;;;;;;;11.52;8.50;;;;;;;6.51;40.71;99952.09;5027473;28;20064;-68
2022/03/09 08:51:09;;;;;;;11.02;7.57;;;;;;;6.64;40.49;99955.25;5027350;28;20209;-68
2022/03/09 08:53:40;;;;;;;10.07;7.97;;;;;;;6.77;40.31;99958.38;5027119;28;20076;-68
2022/03/09 08:56:10;;;;;;;12.57;9.07;;;;;;;6.84;40.24;99963.44;5027110;28;20045;-67
2022/03/09 08:58:39;;;;;;;10.73;8.25;;;;;;;6.90;40.18;99957.13;5027119;28;20045;-68
2022/03/09 09:01:10;;;;;;;14.15;8.93;;;;;;;7.01;40.06;99950.63;5026414;28;20210;-68
2022/03/09 09:03:40;;;;;;;11.75;8.02;;;;;;;6.98;39.42;99945.44;5027255;28;20041;-68
2022/03/09 09:06:10;;;;;;;10.43;7.72;;;;;;;7.23;39.40;99948.16;5027032;28;20298;-68
2022/03/09 09:08:40;;;;;;;11.48;7.05;;;;;;;7.45;39.04;99945.72;5027271;28;20046;-68
2022/03/09 09:11:12;;;;;;;12.90;7.85;;;;;;;7.73;39.07;99942.16;5025649;28;20329;-68
2022/03/09 09:13:41;;;;;;;9.32;6.82;;;;;;;7.98;38.03;99928.06;5026812;28;20050;-68
2022/03/09 09:16:11;;;;;;;11.63;8.48;;;;;;;5.51;38.18;99471.97;5026137;28;20044;-68
2022/03/09 09:18:43;;;;;;;11.02;8.25;;;;;;;8.37;38.01;99916.97;5027117;28;20041;-68
2022/03/09 09:21:12;;;;;;;9.88;6.78;;;;;;;8.48;37.51;99912.13;5026841;28;20038;-68
2022/03/09 09:23:42;;;;;;;12.88;7.80;;;;;;;8.58;37.71;99912.66;5026987;28;20045;-68
2022/03/09 09:26:18;;;;;;;11.20;7.47;;;;;;;8.69;37.18;99902.53;5026850;28;20042;-68
2022/03/09 09:28:47;;;;;;;12.38;8.70;;;;;;;8.65;37.60;99896.50;5026525;28;20241;-68
2022/03/09 09:31:18;;;;;;;9.02;7.00;;;;;;;8.55;37.32;99896.91;5025931;28;20042;-68
2022/03/09 09:33:48;;;;;;;10.30;6.68;;;;;;;8.41;37.50;99908.00;5026414;28;20046;-69
2022/03/09 09:36:18;;;;;;;12.45;8.27;;;;;;;8.32;37.49;99901.28;5026719;28;20042;-68
2022/03/09 09:38:49;;;;;;;13.75;8.00;;;;;;;8.30;37.70;99894.34;5026280;28;20305;-69
2022/03/09 09:41:24;;;;;;;10.27;7.22;;;;;;;8.16;38.03;99899.25;5026401;28;20042;-68
2022/03/09 09:43:57;;;;;;;10.70;6.75;;;;;;;8.12;37.88;99884.47;5026280;28;20046;-69
2022/03/09 09:46:29;;;;;;;10.05;7.50;;;;;;;8.08;38.33;99888.13;5026592;28;20049;-69
2022/03/09 09:49:02;;;;;;;12.27;8.30;;;;;;;7.98;38.30;99895.53;5026273;28;20042;-69
2022/03/09 09:51:37;;;;;;;15.02;8.55;;;;;;;8.03;38.27;99886.50;5026233;28;20064;-69
2022/03/09 09:54:10;;;;;;;13.90;7.20;;;;;;;8.03;38.00;99907.63;5025985;28;20046;-68
2022/03/09 09:56:44;;;;;;;8.48;5.97;;;;;;;8.05;38.35;99893.53;5026344;28;20049;-68
2022/03/09 09:59:16;;;;;;;10.43;7.50;;;;;;;7.95;38.54;99854.25;5026021;28;20068;-68
2022/03/09 10:01:49;;;;;;;12.77;7.13;;;;;;;8.12;38.31;99887.97;5025344;28;20042;-68
2022/03/09 10:04:22;;;;;;;7.90;5.53;;;;;;;7.82;38.43;99837.16;5026056;28;20046;-68
2022/03/09 10:06:55;;;;;;;7.75;6.05;;;;;;;8.08;38.84;99888.13;5026277;28;20038;-68
2022/03/09 10:09:35;;;;;;;9.30;5.50;;;;;;;8.03;38.04;99886.50;5026314;28;20049;-68
2022/03/09 10:12:11;;;;;;;7.13;5.57;;;;;;;8.01;38.80;99883.06;5025900;28;20049;-68
2022/03/09 10:14:47;;;;;;;7.85;6.03;;;;;;;8.00;38.92;99884.00;5025554;28;20201;-68
2022/03/09 10:17:21;;;;;;;12.55;7.80;;;;;;;7.60;39.18;99821.22;5025133;28;20049;-68
2022/03/09 10:19:58;;;;;;;7.47;5.53;;;;;;;8.02;39.17;99876.00;5025450;28;20037;-69
2022/03/09 10:22:32;;;;;;;8.23;5.55;;;;;;;8.00;39.35;99876.06;5025363;28;20385;-69
2022/03/09 10:25:18;;;;;;;7.20;5.65;;;;;;;7.98;38.72;99880.53;5025935;28;20049;-68
2022/03/09 10:27:53;;;;;;;8.05;6.22;;;;;;;7.46;39.12;99778.66;5026002;28;20049;-69
2022/03/09 10:30:31;;;;;;;13.32;6.38;;;;;;;8.10;39.11;99878.38;5025541;28;20206;-68
2022/03/09 10:33:05;;;;;;;8.10;6.03;;;;;;;8.07;38.95;99875.84;5025445;28;20041;-69
2022/03/09 10:35:47;;;;;;;10.13;6.10;;;;;;;7.99;38.20;99876.13;5025579;28;20041;-69
2022/03/09 10:38:25;;;;;;;9.68;6.78;;;;;;;7.92;38.18;99877.25;5025768;28;20042;-69
2022/03/09 10:41:05;;;;;;;9.43;6.35;;;;;;;8.00;38.69;99876.06;5025589;28;20053;-70
2022/03/09 10:43:39;;;;;;;9.02;6.60;;;;;;;8.09;38.69;99874.88;5025684;28;20045;-70
2022/03/09 10:46:13;;;;;;;8.82;5.75;;;;;;;8.16;38.92;99876.38;5025665;28;20049;-67
2022/03/09 10:48:54;;;;;;;9.75;5.50;;;;;;;8.28;38.32;99873.28;5025312;28;20041;-68
2022/03/09 10:51:33;;;;;;;7.13;5.75;;;;;;;8.38;38.44;99867.63;5025547;28;20052;-68
2022/03/09 10:54:07;;;;;;;7.63;5.60;;;;;;;7.48;38.82;99715.31;5025270;28;20065;-69
2022/03/09 10:56:39;;;;;;;8.32;6.40;;;;;;;8.51;38.70;99869.75;5025395;28;20041;-69
2022/03/09 10:59:16;;;;;;;8.38;6.68;;;;;;;8.63;38.66;99855.22;5025471;28;20212;-69
2022/03/09 11:02:06;;;;;;;8.57;5.93;;;;;;;8.74;38.40;99855.63;5025242;28;20060;-69
2022/03/09 11:04:39;;;;;;;9.35;6.68;;;;;;;8.94;38.30;99870.69;5024324;28;20205;-69
2022/03/09 11:07:12;;;;;;;8.77;6.32;;;;;;;9.24;37.71;99853.63;5024228;28;20042;-69
2022/03/09 11:09:44;;;;;;;8.43;6.03;;;;;;;9.47;37.41;99849.16;5025040;28;20042;-68
2022/03/09 11:12:17;;;;;;;8.10;5.82;;;;;;;9.71;36.81;99844.59;5024241;28;20084;-69
2022/03/09 11:14:51;;;;;;;11.25;5.80;;;;;;;9.94;36.79;99841.78;5025046;28;20046;-69
2022/03/09 11:17:24;;;;;;;8.82;7.32;;;;;;;10.13;36.39;99863.88;5025415;28;20290;-69
2022/03/09 11:19:56;;;;;;;7.45;5.20;;;;;;;10.31;36.23;99818.91;5025220;28;20052;-68
2022/03/09 11:22:28;;;;;;;9.32;5.55;;;;;;;10.55;35.88;99828.38;5025462;28;20045;-69
2022/03/09 11:25:01;;;;;;;8.23;6.82;;;;;;;10.80;35.89;99822.78;5025007;28;20046;-69
2022/03/09 11:27:33;;;;;;;7.68;5.45;;;;;;;11.04;35.78;99818.06;5025191;28;20308;-68
2022/03/09 11:30:25;;;;;;;5.43;4.38;;;;;;;11.17;34.95;99822.69;5025463;28;20049;-69
2022/03/09 11:32:58;;;;;;;7.53;5.53;;;;;;;11.29;35.27;99818.53;5025008;28;20041;-69
2022/03/09 11:35:36;;;;;;;8.90;4.88;;;;;;;11.30;34.45;99820.25;5026404;28;20042;-68
2022/03/09 11:38:41;;;;;;;7.43;4.90;;;;;;;11.34;34.46;99819.16;5028450;28;20038;-69
2022/03/09 11:41:19;;;;;;;6.03;4.53;;;;;;;11.48;34.51;99814.00;5028555;28;20041;-69
2022/03/09 11:43:49;;;;;;;6.30;5.20;;;;;;;11.60;34.97;99804.56;5028532;28;20045;-69
2022/03/09 11:46:22;;;;;;;6.50;5.13;;;;;;;11.25;34.58;99734.72;5028419;28;20053;-69
2022/03/09 11:48:52;;;;;;;9.38;5.32;;;;;;;11.70;34.84;99797.81;5028385;28;20053;-69
2022/03/09 11:51:21;;;;;;;8.30;5.30;;;;;;;11.47;34.71;99716.75;5028315;28;20053;-69
2022/03/09 11:53:53;;;;;;;8.40;5.07;;;;;;;12.02;34.34;99795.28;5027617;28;20313;-69
2022/03/09 11:56:31;;;;;;;8.27;5.82;;;;;;;12.09;33.83;99781.59;5028361;28;20041;-69
2022/03/09 11:59:18;;;;;;;10.50;6.32;;;;;;;12.01;33.61;99782.94;5027667;28;20060;-68